Swift, Minnesota
Current Conditions -  °F | °C
As of 7:14 PM on Friday 28 Nov 2014 (Local Time) from KRRT Reporting Station
Light Snow Light Snow  
Wind Chill:   Ceiling: 4600
Heat Index: 16°   Visibility: 3mi
Dew Point: 10°   Wind: 6mph
Humidity: 79%   Direction: 120°ESE
Pressure: 29.74"   Gusts: NA
Location:  48.85°N, 95.22°W
Report Text: KRRT 290114Z AUTO 12005KT 3SM -SN SCT018 OVC046 M09/M12 A2974 RMK AO2
Loading
Personal Weather Stations






























Interactive Weather Map New forecast layout! Learn more

10-Day Weather Forecast

Advertisements
Track Severe Weather on mobile